Time;durP1;ratioP1;P1;durP2;ratioP2;P2;SDS_P1;SDS_P2;PMS_P1;PMS_P2;Temp;Humidity;BMP_temperature;BMP_pressure;BME280_temperature;BME280_humidity;BME280_pressure;Samples;Min_cycle;Max_cycle;Signal;HPM_P1;HPM_P2
2021/12/21 00:03:36;;;;;;;1.77;0.90;;;20.00;22.00;20.50;94228.00;;;;10255288;28;46901;-61
2021/12/21 00:08:37;;;;;;;1.13;0.70;;;20.00;22.00;20.50;94221.00;;;;10270908;28;45586;-61
2021/12/21 00:13:53;;;;;;;1.88;0.85;;;20.00;22.10;20.50;94224.00;;;;10293843;28;46231;-61
2021/12/21 00:24:10;;;;;;;;;;;20.00;22.10;20.50;94206.00;;;;10313325;28;45888;-61
2021/12/21 00:29:11;;;;;;;2.05;0.88;;;20.00;22.00;20.40;94205.00;;;;10311473;28;45387;-61
2021/12/21 00:34:11;;;;;;;1.60;0.80;;;20.00;22.00;20.40;94216.00;;;;10312539;28;45443;-61
2021/12/21 00:39:15;;;;;;;1.15;0.75;;;20.00;22.00;20.40;94214.00;;;;10311975;28;45357;-61
2021/12/21 00:44:16;;;;;;;1.00;0.70;;;20.00;22.00;20.40;94205.00;;;;10310798;28;47080;-61
2021/12/21 00:49:17;;;;;;;1.88;0.88;;;20.00;22.00;20.40;94196.00;;;;10310664;28;45663;-62
2021/12/21 00:54:18;;;;;;;1.88;0.77;;;20.00;22.00;20.40;94209.00;;;;10311643;28;45374;-60
2021/12/21 00:59:19;;;;;;;1.48;0.80;;;19.90;22.00;20.40;94192.00;;;;10310164;28;47792;-60
2021/12/21 01:04:25;;;;;;;1.33;0.70;;;19.90;22.00;20.40;94195.00;;;;10310579;28;45339;-60
2021/12/21 01:20:02;;;;;;;1.67;0.90;;;19.90;22.00;20.40;94206.00;;;;10317783;28;46115;-61
2021/12/21 01:30:30;;;;;;;0.85;0.70;;;19.90;22.00;20.40;94196.00;;;;10316455;28;45203;-60
2021/12/21 01:35:39;;;;;;;1.60;0.80;;;19.90;22.00;20.30;94185.00;;;;10316470;28;45166;-60
2021/12/21 01:51:01;;;;;;;1.92;0.70;;;19.90;22.00;20.30;94168.00;;;;10316234;28;45200;-62
2021/12/21 01:56:04;;;;;;;1.65;0.77;;;19.90;22.00;20.30;94186.00;;;;10315501;28;45393;-60
2021/12/21 02:01:07;;;;;;;1.95;0.93;;;19.90;22.00;20.30;94181.00;;;;10312243;28;46945;-61
2021/12/21 02:06:08;;;;;;;1.27;0.70;;;19.80;22.00;20.30;94183.00;;;;10312552;28;47287;-61
2021/12/21 02:11:09;;;;;;;1.35;0.80;;;19.90;22.00;20.30;94141.00;;;;10315086;28;45310;-61
2021/12/21 02:16:09;;;;;;;1.83;0.70;;;19.80;22.00;20.30;94151.00;;;;10315169;28;45195;-62
2021/12/21 02:31:31;;;;;;;1.58;0.70;;;19.80;22.00;20.30;94160.00;;;;10308910;28;45177;-62
2021/12/21 02:36:32;;;;;;;1.45;0.80;;;19.80;22.00;20.30;94172.00;;;;10315027;28;46380;-62
2021/12/21 02:41:35;;;;;;;1.50;0.80;;;19.80;21.90;20.20;94150.00;;;;10313576;28;45146;-62
2021/12/21 02:46:39;;;;;;;3.10;0.85;;;19.80;22.00;20.20;94165.00;;;;10313342;28;45374;-62
2021/12/21 02:51:43;;;;;;;2.13;0.90;;;19.80;22.00;20.30;94153.00;;;;10312859;28;45257;-62
2021/12/21 02:56:44;;;;;;;0.77;0.60;;;19.80;21.90;20.20;94143.00;;;;10282597;28;46452;-62
2021/12/21 03:01:44;;;;;;;2.03;0.60;;;19.80;22.00;20.20;94151.00;;;;10256302;28;47284;-62
2021/12/21 03:11:56;;;;;;;1.40;0.70;;;19.80;22.00;20.30;94145.00;;;;10279602;28;45115;-62
2021/12/21 03:16:57;;;;;;;2.33;0.90;;;19.80;22.00;20.30;94153.00;;;;10313473;28;46116;-63
2021/12/21 03:21:58;;;;;;;2.35;0.90;;;19.80;22.00;20.20;94145.00;;;;10313166;28;46480;-62
2021/12/21 03:26:59;;;;;;;1.55;0.70;;;19.80;22.00;20.20;94140.00;;;;10311913;28;45281;-62
2021/12/21 03:32:01;;;;;;;2.33;0.75;;;19.80;22.00;20.20;94145.00;;;;10270921;28;45358;-62
2021/12/21 03:37:09;;;;;;;1.08;0.70;;;19.80;22.00;20.20;94144.00;;;;10273624;28;46306;-61
2021/12/21 03:42:14;;;;;;;1.75;0.70;;;19.80;22.00;20.20;94130.00;;;;10256743;28;46720;-61
2021/12/21 03:47:15;;;;;;;1.42;0.70;;;19.80;22.00;20.20;94149.00;;;;10272028;28;45956;-61
2021/12/21 03:52:19;;;;;;;1.70;0.73;;;19.80;22.00;20.20;94149.00;;;;10271950;28;45828;-61
2021/12/21 03:57:20;;;;;;;2.45;0.70;;;19.80;22.00;20.20;94146.00;;;;10271648;28;46527;-61
2021/12/21 04:02:24;;;;;;;1.42;0.80;;;19.80;22.00;20.20;94148.00;;;;10272943;28;45352;-61
2021/12/21 04:07:26;;;;;;;2.13;0.80;;;19.70;21.90;20.20;94140.00;;;;10271665;28;46381;-61
2021/12/21 04:12:26;;;;;;;2.15;0.70;;;19.80;22.00;20.20;94141.00;;;;10266400;28;47242;-61
2021/12/21 04:17:27;;;;;;;1.55;0.77;;;19.80;22.00;20.20;94136.00;;;;10312923;28;45219;-61
2021/12/21 04:22:28;;;;;;;1.63;1.00;;;19.80;22.00;20.20;94147.00;;;;10311246;28;47409;-61
2021/12/21 04:27:28;;;;;;;1.20;0.90;;;19.80;22.00;20.20;94146.00;;;;10312725;28;45310;-61
2021/12/21 04:32:29;;;;;;;2.95;0.90;;;19.70;21.90;20.20;94152.00;;;;10312456;28;45165;-61
2021/12/21 04:37:30;;;;;;;2.47;0.90;;;19.70;21.90;20.20;94146.00;;;;10312391;28;45542;-60
2021/12/21 04:42:30;;;;;;;2.00;0.80;;;19.70;21.90;20.20;94149.00;;;;10313432;28;48077;-61
2021/12/21 04:47:31;;;;;;;2.10;0.90;;;19.70;21.80;20.20;94143.00;;;;10319290;28;46462;-61
2021/12/21 04:52:32;;;;;;;2.45;1.10;;;19.70;21.80;20.20;94141.00;;;;10319118;28;45354;-61
2021/12/21 04:57:32;;;;;;;1.50;0.75;;;19.70;21.90;20.20;94155.00;;;;10333650;28;48510;-60
2021/12/21 05:02:33;;;;;;;2.22;0.70;;;19.70;21.80;20.20;94147.00;;;;10317594;28;45472;-61
2021/12/21 05:07:36;;;;;;;1.75;0.77;;;19.70;21.80;20.20;94162.00;;;;10318590;28;45142;-61
2021/12/21 05:12:37;;;;;;;1.63;0.73;;;19.70;21.80;20.20;94155.00;;;;10303872;28;45254;-61
2021/12/21 05:17:37;;;;;;;1.70;0.70;;;19.70;21.80;20.20;94159.00;;;;10276649;28;45368;-61
2021/12/21 05:22:38;;;;;;;2.67;1.00;;;19.80;21.80;20.20;94167.00;;;;10276316;28;46667;-60
2021/12/21 05:27:39;;;;;;;3.13;1.40;;;19.80;21.70;20.30;94167.00;;;;10276166;28;46036;-61
2021/12/21 05:32:40;;;;;;;5.35;2.10;;;19.80;21.60;20.30;94165.00;;;;10276496;28;46050;-61
2021/12/21 05:37:41;;;;;;;5.13;2.30;;;19.80;21.50;20.30;94159.00;;;;10259600;28;47114;-61
2021/12/21 05:42:45;;;;;;;5.88;2.65;;;19.80;21.40;20.30;94158.00;;;;10259327;28;46994;-60
2021/12/21 05:47:46;;;;;;;5.38;2.40;;;19.80;21.30;20.30;94157.00;;;;10275304;28;45337;-61
2021/12/21 05:52:48;;;;;;;7.25;2.33;;;19.90;21.30;20.30;94177.00;;;;10276298;28;45342;-61
2021/12/21 05:57:49;;;;;;;4.25;1.85;;;19.90;21.30;20.30;94170.00;;;;10274657;28;45191;-60
2021/12/21 06:02:50;;;;;;;3.78;1.75;;;19.90;21.20;20.40;94181.00;;;;10276275;28;45290;-61
2021/12/21 06:07:53;;;;;;;2.38;1.35;;;19.90;21.20;20.40;94176.00;;;;10274486;28;45507;-62
2021/12/21 06:13:22;;;;;;;3.58;1.90;;;19.90;21.20;20.40;94181.00;;;;10289228;28;45226;-60
2021/12/21 06:29:03;;;;;;;4.18;2.20;;;20.00;21.20;20.40;94182.00;;;;10286592;28;45225;-60
2021/12/21 06:34:04;;;;;;;4.32;2.00;;;20.00;21.10;20.40;94188.00;;;;10314934;28;45201;-62
2021/12/21 06:39:06;;;;;;;3.60;2.00;;;20.00;21.10;20.40;94184.00;;;;10313025;28;45876;-62
2021/12/21 06:44:09;;;;;;;3.65;1.80;;;20.00;21.10;20.40;94191.00;;;;10306275;28;47984;-62
2021/12/21 06:54:30;;;;;;;3.10;1.50;;;20.00;21.10;20.50;94202.00;;;;10304562;28;45235;-62
2021/12/21 06:59:31;;;;;;;2.28;1.42;;;20.00;21.20;20.50;94169.00;;;;10311125;28;46977;-63
2021/12/21 07:04:32;;;;;;;2.40;1.33;;;20.00;21.20;20.50;94198.00;;;;10312267;28;46437;-61
2021/12/21 07:09:41;;;;;;;3.05;1.90;;;20.10;21.20;20.50;94192.00;;;;10311284;28;46265;-61
2021/12/21 07:20:03;;;;;;;6.72;2.80;;;20.10;20.50;20.40;94181.00;;;;10312959;28;45662;-60
2021/12/21 07:25:04;;;;;;;4.28;2.40;;;20.10;20.90;20.40;94185.00;;;;10312309;28;46568;-60
2021/12/21 07:30:07;;;;;;;3.10;2.05;;;20.00;21.20;20.40;94197.00;;;;10310863;28;48193;-61
2021/12/21 07:35:08;;;;;;;4.05;2.33;;;20.10;21.30;20.50;94187.00;;;;10311847;28;45182;-62
2021/12/21 07:40:10;;;;;;;3.53;2.00;;;20.00;21.30;20.50;94203.00;;;;10312266;28;45412;-62
2021/12/21 07:45:11;;;;;;;2.65;1.80;;;20.10;21.50;20.50;94214.00;;;;10312253;28;45963;-62
2021/12/21 07:50:12;;;;;;;2.63;1.63;;;20.10;21.50;20.50;94204.00;;;;10311779;28;48400;-62
2021/12/21 07:55:13;;;;;;;2.90;1.50;;;20.10;21.60;20.50;94214.00;;;;10311804;28;45580;-62
2021/12/21 08:00:15;;;;;;;3.20;1.80;;;20.10;21.80;20.50;94220.00;;;;10311647;28;45288;-61
2021/12/21 08:05:16;;;;;;;3.47;1.63;;;20.10;21.60;20.50;94206.00;;;;10311850;28;46613;-62
2021/12/21 08:10:30;;;;;;;3.92;2.00;;;20.10;21.60;20.50;94206.00;;;;10310680;28;46468;-61
2021/12/21 08:15:31;;;;;;;5.95;2.60;;;20.10;21.60;20.50;94218.00;;;;10277224;28;45557;-60
2021/12/21 08:20:32;;;;;;;3.40;1.90;;;20.20;20.40;20.50;94218.00;;;;10306145;28;46847;-62
2021/12/21 08:25:37;;;;;;;3.78;1.75;;;20.10;21.30;20.60;94214.00;;;;10323961;28;46968;-63
2021/12/21 08:30:38;;;;;;;2.70;1.63;;;20.10;21.40;20.70;94214.00;;;;10322197;28;45435;-63
2021/12/21 08:35:39;;;;;;;3.10;1.63;;;20.20;21.70;20.70;94217.00;;;;10316351;28;45560;-62
2021/12/21 08:40:42;;;;;;;2.28;1.52;;;20.20;21.70;20.70;94211.00;;;;10315294;28;45579;-60
2021/12/21 08:45:47;;;;;;;2.85;1.65;;;20.30;21.90;20.80;94214.00;;;;10324282;28;45576;-62
2021/12/21 08:50:53;;;;;;;2.78;1.30;;;20.30;21.90;20.80;94205.00;;;;10276944;28;46203;-65
2021/12/21 08:55:55;;;;;;;2.63;1.40;;;20.40;22.00;20.80;94182.00;;;;10331881;28;45409;-63
2021/12/21 09:00:56;;;;;;;2.80;1.48;;;20.40;22.00;20.80;94180.00;;;;10332668;28;46875;-62
2021/12/21 09:05:57;;;;;;;2.22;1.20;;;20.40;22.10;20.80;94189.00;;;;10332212;28;46025;-63
2021/12/21 09:11:05;;;;;;;1.85;1.10;;;20.40;22.00;20.90;94210.00;;;;10315809;28;46359;-62
2021/12/21 09:16:06;;;;;;;1.90;1.15;;;20.40;22.00;20.90;94197.00;;;;10269839;28;47088;-63
2021/12/21 09:21:07;;;;;;;2.90;1.40;;;20.50;22.00;20.90;94214.00;;;;10316320;28;45285;-63
2021/12/21 09:26:08;;;;;;;1.60;1.20;;;20.50;21.90;20.90;94214.00;;;;10315964;28;45403;-63
2021/12/21 09:31:08;;;;;;;2.15;1.20;;;20.50;22.10;20.90;94231.00;;;;10315594;28;46216;-64
2021/12/21 09:36:09;;;;;;;1.98;1.25;;;20.50;22.00;20.90;94232.00;;;;10314564;28;46723;-63
2021/12/21 09:41:11;;;;;;;2.00;1.20;;;20.50;22.00;20.90;94230.00;;;;10315812;28;45172;-63
2021/12/21 09:46:13;;;;;;;2.08;1.20;;;20.50;21.90;20.90;94219.00;;;;10314444;28;46772;-64
2021/12/21 09:51:15;;;;;;;1.90;1.10;;;20.50;21.90;21.00;94222.00;;;;10314419;28;46434;-61
2021/12/21 09:56:17;;;;;;;1.80;1.10;;;20.50;22.00;21.00;94213.00;;;;10314487;28;45130;-63
2021/12/21 10:01:21;;;;;;;2.90;1.05;;;20.50;22.40;21.00;94213.00;;;;10314468;28;47100;-64
2021/12/21 10:06:21;;;;;;;2.25;1.00;;;20.60;22.10;20.90;94213.00;;;;10306177;28;45303;-62
2021/12/21 10:11:23;;;;;;;1.95;1.10;;;20.50;21.10;20.80;94217.00;;;;10288826;28;45111;-61
2021/12/21 10:16:24;;;;;;;1.73;1.00;;;20.50;20.50;20.80;94215.00;;;;10273153;28;45315;-62
2021/12/21 10:21:24;;;;;;;3.13;1.30;;;20.50;20.50;20.70;94200.00;;;;10304848;28;45307;-62
2021/12/21 10:26:29;;;;;;;2.72;1.60;;;20.40;20.10;20.70;94196.00;;;;10313509;28;45299;-62
2021/12/21 10:31:36;;;;;;;3.33;1.40;;;20.40;19.90;20.70;94182.00;;;;10276353;28;46033;-61
2021/12/21 10:36:49;;;;;;;2.85;1.20;;;20.40;19.60;20.60;94181.00;;;;10270506;28;48103;-61
2021/12/21 10:41:52;;;;;;;2.95;1.58;;;20.40;20.20;20.50;94176.00;;;;10310558;28;45417;-62
2021/12/21 10:46:56;;;;;;;2.80;1.25;;;20.20;19.70;20.60;94178.00;;;;10312969;28;46157;-62
2021/12/21 10:51:57;;;;;;;2.88;1.30;;;20.20;19.80;20.50;94178.00;;;;10312707;28;47784;-62
2021/12/21 10:57:07;;;;;;;2.50;1.30;;;20.10;19.80;20.50;94156.00;;;;10312642;28;45285;-62
2021/12/21 11:02:14;;;;;;;2.17;1.13;;;20.10;20.00;20.50;94162.00;;;;10312619;28;46169;-61
2021/12/21 11:07:28;;;;;;;1.85;1.08;;;20.10;20.40;20.60;94168.00;;;;10311958;28;45292;-62
2021/12/21 11:12:42;;;;;;;2.33;1.05;;;20.20;21.20;20.70;94157.00;;;;10279436;28;47408;-65
2021/12/21 11:17:43;;;;;;;2.85;1.00;;;20.20;20.70;20.70;94163.00;;;;10304479;28;45950;-63
2021/12/21 11:22:45;;;;;;;1.95;1.00;;;20.20;20.90;20.80;94161.00;;;;10326651;28;48032;-61
2021/12/21 11:27:47;;;;;;;1.63;0.98;;;20.30;21.00;20.80;94148.00;;;;10310470;28;45224;-61
2021/12/21 11:32:51;;;;;;;2.33;1.13;;;20.30;21.10;20.80;94152.00;;;;10311273;28;46993;-61
2021/12/21 11:38:00;;;;;;;2.08;1.20;;;20.30;21.20;20.80;94153.00;;;;10310574;28;47199;-61
2021/12/21 11:43:30;;;;;;;2.10;1.20;;;20.30;21.20;20.70;94141.00;;;;10310798;28;46240;-61
2021/12/21 11:48:44;;;;;;;1.90;1.10;;;20.30;21.20;20.70;94134.00;;;;10311283;28;45192;-61
2021/12/21 11:53:47;;;;;;;1.58;1.05;;;20.40;21.30;20.80;94137.00;;;;10327169;28;47068;-61
2021/12/21 11:58:56;;;;;;;2.40;1.00;;;20.30;21.20;20.70;94138.00;;;;10311657;28;45225;-61
2021/12/21 12:04:04;;;;;;;1.77;1.10;;;20.30;21.30;20.80;94139.00;;;;10310641;28;46937;-61
2021/12/21 12:09:05;;;;;;;2.90;1.30;;;20.30;21.20;20.70;94125.00;;;;10309463;28;45458;-62
2021/12/21 12:14:22;;;;;;;2.78;1.42;;;20.30;21.20;20.70;94116.00;;;;10295562;28;45265;-61
2021/12/21 12:19:32;;;;;;;2.22;1.40;;;20.30;21.20;20.70;94140.00;;;;10310159;28;46570;-61
2021/12/21 12:24:39;;;;;;;2.25;1.52;;;20.40;21.20;20.70;94128.00;;;;10299865;28;47423;-61
2021/12/21 12:29:51;;;;;;;2.53;1.48;;;20.40;21.10;20.70;94123.00;;;;10300983;28;45493;-61
2021/12/21 12:35:05;;;;;;;3.28;1.70;;;20.30;21.00;20.70;94134.00;;;;10271818;28;47264;-61
2021/12/21 12:40:11;;;;;;;3.85;1.60;;;20.30;20.90;20.70;94128.00;;;;10280420;28;46065;-61
2021/12/21 12:45:18;;;;;;;2.63;2.05;;;20.30;20.90;20.70;94128.00;;;;10310061;28;46403;-61
2021/12/21 12:50:24;;;;;;;2.05;1.60;;;20.30;20.80;20.70;94111.00;;;;10310728;28;45459;-61
2021/12/21 12:55:49;;;;;;;2.72;1.90;;;20.30;20.80;20.70;94113.00;;;;10309685;28;46419;-61
2021/12/21 13:01:05;;;;;;;2.65;1.70;;;20.30;20.80;20.70;94111.00;;;;10268885;28;47646;-61
2021/12/21 13:06:18;;;;;;;2.35;1.85;;;20.30;20.80;20.70;94118.00;;;;10290655;28;47191;-60
2021/12/21 13:11:30;;;;;;;2.63;1.90;;;20.30;20.80;20.80;94117.00;;;;10294490;28;45373;-61
2021/12/21 13:16:34;;;;;;;2.85;2.17;;;20.40;20.80;20.80;94112.00;;;;10316019;28;45215;-61
2021/12/21 13:21:47;;;;;;;3.50;2.22;;;20.40;20.90;20.80;94110.00;;;;10315606;28;45619;-61
2021/12/21 13:26:56;;;;;;;3.28;2.20;;;20.40;20.80;20.80;94112.00;;;;10315133;28;45424;-61
2021/12/21 13:32:05;;;;;;;3.53;2.05;;;20.30;20.80;20.80;94101.00;;;;10324170;28;46921;-63
2021/12/21 13:37:12;;;;;;;2.70;1.88;;;20.40;20.80;20.80;94114.00;;;;10354547;28;46649;-63
2021/12/21 13:42:20;;;;;;;2.40;1.90;;;20.40;21.00;20.80;94100.00;;;;10314671;28;46446;-63
2021/12/21 13:47:32;;;;;;;2.55;1.50;;;20.40;20.90;20.80;94111.00;;;;10314760;28;48120;-62
2021/12/21 13:52:44;;;;;;;3.97;1.63;;;20.40;20.90;20.80;94126.00;;;;10314880;28;46217;-60
2021/12/21 13:57:48;;;;;;;2.30;1.60;;;20.40;21.00;20.80;94119.00;;;;10315497;28;46348;-60
2021/12/21 14:03:01;;;;;;;1.80;1.50;;;20.40;20.90;20.80;94113.00;;;;10313513;28;47094;-60
2021/12/21 14:08:02;;;;;;;2.10;1.50;;;20.40;20.90;20.80;94123.00;;;;10314157;28;45351;-60
2021/12/21 14:13:02;;;;;;;2.72;1.60;;;20.40;20.90;20.80;94111.00;;;;10313687;28;45202;-61
2021/12/21 14:18:37;;;;;;;2.88;1.70;;;20.40;21.00;20.80;94108.00;;;;10313701;28;45469;-63
2021/12/21 14:23:42;;;;;;;2.97;1.38;;;20.40;21.10;20.70;94107.00;;;;10315801;28;46288;-63
2021/12/21 14:29:11;;;;;;;4.93;1.67;;;20.30;21.20;20.80;94110.00;;;;10313289;28;46989;-62
2021/12/21 14:34:19;;;;;;;2.65;1.48;;;20.40;21.20;20.80;94104.00;;;;10313731;28;45611;-62
2021/12/21 14:39:24;;;;;;;1.85;1.27;;;20.40;21.30;20.80;94114.00;;;;10312997;28;45272;-62
2021/12/21 14:44:29;;;;;;;2.55;1.50;;;20.40;21.30;20.80;94119.00;;;;10296750;28;47215;-62
2021/12/21 14:49:34;;;;;;;2.65;1.45;;;20.40;21.30;20.90;94120.00;;;;10327881;28;47474;-61
2021/12/21 14:54:51;;;;;;;1.58;1.20;;;20.50;21.30;20.90;94133.00;;;;10351994;28;46095;-60
2021/12/21 14:59:51;;;;;;;2.27;1.50;;;20.40;21.30;20.90;94134.00;;;;10354355;28;47200;-62
2021/12/21 15:04:58;;;;;;;1.80;1.10;;;20.50;21.30;20.90;94133.00;;;;10352607;28;45545;-61
2021/12/21 15:10:00;;;;;;;2.22;1.30;;;20.50;21.20;20.90;94149.00;;;;10344544;28;45566;-62
2021/12/21 15:15:03;;;;;;;1.58;0.98;;;20.50;21.40;21.00;94166.00;;;;10312278;28;48140;-63
2021/12/21 15:20:04;;;;;;;3.17;1.80;;;20.50;21.70;20.80;94164.00;;;;10282743;28;45214;-63
2021/12/21 15:25:08;;;;;;;2.30;1.50;;;20.50;20.20;20.80;94148.00;;;;10309236;28;45228;-64
2021/12/21 15:30:14;;;;;;;1.90;1.13;;;20.50;20.00;20.90;94153.00;;;;10317174;28;47049;-62
2021/12/21 15:35:17;;;;;;;1.88;1.40;;;20.50;21.00;21.00;94162.00;;;;10310989;28;45389;-62
2021/12/21 15:40:21;;;;;;;1.95;1.30;;;20.50;21.30;21.00;94168.00;;;;10311183;28;45576;-63
2021/12/21 15:45:23;;;;;;;1.15;0.98;;;20.50;21.40;20.90;94172.00;;;;10293567;28;47130;-63
2021/12/21 15:50:24;;;;;;;1.55;1.25;;;20.50;21.50;21.00;94186.00;;;;10309803;28;46037;-63
2021/12/21 15:55:25;;;;;;;1.67;1.20;;;20.50;21.60;20.90;94171.00;;;;10310372;28;45533;-62
2021/12/21 16:00:26;;;;;;;3.47;1.30;;;20.50;21.60;21.00;94189.00;;;;10307095;28;45300;-61
2021/12/21 16:05:26;;;;;;;3.10;1.52;;;20.50;21.70;21.00;94176.00;;;;10335068;28;45535;-62
2021/12/21 16:10:27;;;;;;;3.63;1.70;;;20.60;21.70;21.00;94176.00;;;;10315821;28;46317;-62
2021/12/21 16:15:28;;;;;;;2.35;1.40;;;20.60;21.70;21.10;94180.00;;;;10332040;28;45631;-61
2021/12/21 16:20:28;;;;;;;2.42;1.70;;;20.60;21.80;21.00;94162.00;;;;10306173;28;48074;-62
2021/12/21 16:25:29;;;;;;;3.20;1.73;;;20.60;21.90;21.00;94189.00;;;;10315957;28;47272;-58
2021/12/21 16:30:36;;;;;;;2.85;1.60;;;20.60;21.80;21.00;94186.00;;;;10309753;28;46141;-64
2021/12/21 16:35:36;;;;;;;2.55;1.77;;;20.60;21.90;21.10;94200.00;;;;10335572;28;47493;-61
2021/12/21 16:40:41;;;;;;;2.33;1.60;;;20.60;21.80;21.10;94189.00;;;;10336963;28;45396;-62
2021/12/21 16:45:42;;;;;;;2.20;1.73;;;20.60;21.90;21.10;94186.00;;;;10316065;28;45360;-61
2021/12/21 16:50:43;;;;;;;3.25;1.92;;;20.60;21.80;21.10;94183.00;;;;10310647;28;47140;-60
2021/12/21 16:55:44;;;;;;;2.55;1.48;;;20.60;21.70;21.10;94201.00;;;;10314547;28;46758;-61
2021/12/21 17:00:44;;;;;;;3.38;1.98;;;20.60;21.70;21.10;94207.00;;;;10315919;28;46916;-61
2021/12/21 17:05:47;;;;;;;2.08;1.83;;;20.70;21.80;21.10;94208.00;;;;10314351;28;45497;-62
2021/12/21 17:10:50;;;;;;;2.45;1.77;;;20.70;21.80;21.10;94204.00;;;;10279296;28;45545;-61
2021/12/21 17:15:51;;;;;;;2.75;2.03;;;20.60;21.80;21.10;94203.00;;;;10316162;28;47323;-62
2021/12/21 17:20:51;;;;;;;2.58;1.60;;;20.70;22.00;21.10;94219.00;;;;10318681;28;45570;-62
2021/12/21 17:25:53;;;;;;;2.10;1.83;;;20.60;21.80;21.10;94217.00;;;;10341079;28;46572;-61
2021/12/21 17:30:54;;;;;;;4.15;2.00;;;20.60;21.90;21.10;94219.00;;;;10323742;28;45231;-62
2021/12/21 17:35:59;;;;;;;2.78;2.00;;;20.70;21.80;21.10;94221.00;;;;10315142;28;46760;-60
2021/12/21 17:40:59;;;;;;;2.88;2.03;;;20.60;21.80;21.10;94229.00;;;;10314681;28;47439;-61
2021/12/21 17:46:01;;;;;;;2.80;1.83;;;20.70;21.90;21.10;94235.00;;;;10314526;28;45354;-62
2021/12/21 17:51:02;;;;;;;2.63;1.70;;;20.70;21.90;21.10;94232.00;;;;10314668;28;45251;-61
2021/12/21 17:56:03;;;;;;;2.88;2.05;;;20.70;22.10;21.10;94225.00;;;;10314196;28;47070;-62
2021/12/21 18:01:04;;;;;;;2.67;1.90;;;20.70;21.20;21.10;94209.00;;;;10334541;28;46497;-60
2021/12/21 18:06:05;;;;;;;3.42;1.92;;;20.70;21.80;21.20;94221.00;;;;10372307;28;46418;-62
2021/12/21 18:11:06;;;;;;;2.78;1.80;;;20.70;21.60;21.30;94228.00;;;;10354362;28;47779;-62
2021/12/21 18:16:07;;;;;;;2.55;1.85;;;20.80;21.40;21.30;94227.00;;;;10312754;28;45282;-63
2021/12/21 18:21:07;;;;;;;2.47;1.70;;;20.80;21.40;21.30;94230.00;;;;10309478;28;45324;-62
2021/12/21 18:26:08;;;;;;;1.95;1.55;;;20.80;21.40;21.40;94235.00;;;;10314988;28;45660;-60
2021/12/21 18:31:10;;;;;;;1.90;1.50;;;20.90;21.50;21.40;94260.00;;;;10313913;28;47453;-60
2021/12/21 18:36:10;;;;;;;1.65;1.50;;;20.90;21.40;21.40;94242.00;;;;10313615;28;46868;-60
2021/12/21 18:41:11;;;;;;;3.08;1.73;;;20.90;21.40;21.40;94251.00;;;;10315121;28;45497;-61
2021/12/21 18:46:12;;;;;;;1.83;1.40;;;20.90;21.40;21.40;94243.00;;;;10314026;28;45451;-61
2021/12/21 18:51:13;;;;;;;3.03;1.63;;;20.90;21.40;21.30;94250.00;;;;10312702;28;45157;-61
2021/12/21 18:56:14;;;;;;;1.95;1.40;;;20.90;21.40;21.30;94256.00;;;;10314506;28;46421;-60
2021/12/21 19:01:16;;;;;;;2.45;1.70;;;20.80;21.10;21.30;94254.00;;;;10295354;28;45365;-60
2021/12/21 19:06:17;;;;;;;3.40;1.60;;;20.80;21.10;21.30;94265.00;;;;10313603;28;45431;-60
2021/12/21 19:11:18;;;;;;;2.75;1.70;;;20.80;21.10;21.30;94272.00;;;;10311329;28;45486;-60
2021/12/21 19:16:19;;;;;;;2.25;1.70;;;20.90;21.10;21.40;94276.00;;;;10255958;28;47016;-60
2021/12/21 19:21:19;;;;;;;2.45;1.65;;;20.90;21.20;21.40;94271.00;;;;10271778;28;45188;-60
2021/12/21 19:26:20;;;;;;;2.25;1.50;;;20.90;21.20;21.40;94268.00;;;;10272551;28;46462;-60
2021/12/21 19:31:21;;;;;;;2.22;1.50;;;20.90;21.20;21.40;94272.00;;;;10272394;28;46065;-61
2021/12/21 19:36:21;;;;;;;1.73;1.17;;;20.90;21.10;21.40;94274.00;;;;10272014;28;46450;-61
2021/12/21 19:41:22;;;;;;;1.60;1.50;;;20.90;21.80;21.40;94275.00;;;;10273309;28;45553;-60
2021/12/21 19:46:23;;;;;;;2.67;1.50;;;20.90;21.30;21.40;94288.00;;;;10273286;28;45439;-60
2021/12/21 19:51:24;;;;;;;1.60;1.38;;;20.90;21.30;21.40;94285.00;;;;10272641;28;45461;-61
2021/12/21 19:56:26;;;;;;;2.10;1.45;;;20.90;21.30;21.40;94268.00;;;;10287148;28;47998;-60
2021/12/21 20:01:26;;;;;;;2.53;1.63;;;20.90;21.90;21.40;94269.00;;;;10271054;28;45312;-62
2021/12/21 20:06:27;;;;;;;2.60;1.80;;;20.90;21.30;21.40;94276.00;;;;10271532;28;45669;-63
2021/12/21 20:16:48;;;;;;;2.42;1.60;;;20.90;21.30;21.40;94284.00;;;;10325089;28;45212;-62
2021/12/21 20:21:52;;;;;;;2.70;1.75;;;20.90;21.30;21.30;94281.00;;;;10325926;28;46013;-63
2021/12/21 20:26:53;;;;;;;3.22;2.05;;;20.80;21.30;21.30;94283.00;;;;10325046;28;46148;-61
2021/12/21 20:31:54;;;;;;;2.55;1.80;;;20.80;21.30;21.30;94276.00;;;;10324577;28;46983;-60
2021/12/21 20:36:55;;;;;;;2.85;1.80;;;20.80;21.30;21.30;94277.00;;;;10325269;28;45404;-60
2021/12/21 20:41:56;;;;;;;3.20;1.83;;;20.80;21.30;21.30;94287.00;;;;10324304;28;47138;-60
2021/12/21 20:46:56;;;;;;;3.92;2.30;;;20.80;21.30;21.30;94281.00;;;;10324374;28;46659;-60
2021/12/21 20:51:58;;;;;;;2.85;2.03;;;20.80;21.30;21.40;94307.00;;;;10323338;28;47036;-62
2021/12/21 20:57:00;;;;;;;2.65;1.90;;;20.80;21.40;21.40;94280.00;;;;10323093;28;47102;-62
2021/12/21 21:02:01;;;;;;;2.65;2.00;;;20.90;21.40;21.40;94293.00;;;;10323229;28;47181;-62
2021/12/21 21:07:02;;;;;;;3.47;2.30;;;20.90;21.50;21.40;94299.00;;;;10322956;28;47976;-62
2021/12/21 21:12:08;;;;;;;2.97;2.17;;;20.90;21.50;21.40;94299.00;;;;10313046;28;47013;-63
2021/12/21 21:17:09;;;;;;;2.75;2.10;;;20.90;21.50;21.40;94302.00;;;;10295687;28;47441;-62
2021/12/21 21:22:09;;;;;;;2.85;2.08;;;20.90;21.50;21.40;94283.00;;;;10282563;28;46381;-61
2021/12/21 21:27:11;;;;;;;3.03;2.00;;;20.90;21.40;21.30;94271.00;;;;10258940;28;46561;-62
2021/12/21 21:32:12;;;;;;;3.63;2.55;;;20.80;21.40;21.30;94292.00;;;;10259828;28;46702;-62
2021/12/21 21:37:13;;;;;;;2.33;1.85;;;20.80;21.30;21.30;94302.00;;;;10277290;28;45304;-61
2021/12/21 21:42:13;;;;;;;3.13;1.90;;;20.80;21.30;21.20;94303.00;;;;10276081;28;45276;-62
2021/12/21 21:47:14;;;;;;;2.67;1.90;;;20.80;21.30;21.20;94312.00;;;;10275887;28;45557;-62
2021/12/21 21:52:15;;;;;;;2.70;2.08;;;20.70;21.30;21.20;94309.00;;;;10275992;28;46153;-61
2021/12/21 21:57:16;;;;;;;2.60;1.90;;;20.70;21.30;21.20;94319.00;;;;10275471;28;46319;-62
2021/12/21 22:02:17;;;;;;;2.53;2.10;;;20.70;21.40;21.20;94314.00;;;;10259326;28;47134;-62
2021/12/21 22:07:18;;;;;;;2.42;1.73;;;20.70;21.40;21.20;94303.00;;;;10275196;28;45653;-63
2021/12/21 22:12:18;;;;;;;2.88;1.95;;;20.60;21.30;21.10;94302.00;;;;10269663;28;47337;-62
2021/12/21 22:17:19;;;;;;;2.38;1.50;;;20.60;21.30;21.10;94331.00;;;;10314857;28;47312;-61
2021/12/21 22:22:20;;;;;;;2.10;1.73;;;20.60;21.40;21.10;94318.00;;;;10316043;28;45377;-61
2021/12/21 22:27:21;;;;;;;3.10;1.83;;;20.60;21.30;21.10;94331.00;;;;10311687;28;47141;-61
2021/12/21 22:32:22;;;;;;;2.65;1.90;;;20.60;21.30;21.10;94315.00;;;;10274355;28;47675;-59
2021/12/21 22:37:23;;;;;;;3.70;2.03;;;20.60;21.40;21.10;94322.00;;;;10273819;28;46998;-61
2021/12/21 22:42:23;;;;;;;2.10;1.60;;;20.60;21.40;21.10;94329.00;;;;10290219;28;46980;-61
2021/12/21 22:47:24;;;;;;;2.40;1.70;;;20.60;21.40;21.10;94334.00;;;;10275245;28;46195;-59
2021/12/21 22:52:25;;;;;;;2.25;1.60;;;20.60;21.40;21.00;94331.00;;;;10289923;28;48068;-59
2021/12/21 22:57:25;;;;;;;2.30;1.80;;;20.50;21.40;21.00;94331.00;;;;10274869;28;46297;-60
2021/12/21 23:02:26;;;;;;;2.28;1.55;;;20.60;21.40;21.00;94325.00;;;;10274816;28;47092;-59
2021/12/21 23:07:27;;;;;;;2.58;1.67;;;20.60;21.40;21.00;94322.00;;;;10257177;28;47600;-60
2021/12/21 23:12:27;;;;;;;2.47;1.70;;;20.60;21.40;20.70;94323.00;;;;10284930;28;45292;-60
2021/12/21 23:17:29;;;;;;;2.40;1.63;;;20.50;21.30;20.90;94321.00;;;;10313433;28;45556;-60
2021/12/21 23:22:30;;;;;;;2.45;1.83;;;20.50;21.40;21.00;94327.00;;;;10313065;28;45197;-59
2021/12/21 23:27:33;;;;;;;2.15;1.48;;;20.50;21.40;21.00;94319.00;;;;10313099;28;45447;-60